createdAt,value
2023-03-17T03:58:58.055Z,0.00
2023-03-17T04:00:00.039Z,0.00
2023-03-17T04:00:58.889Z,0.00
2023-03-17T04:02:00.111Z,0.00
2023-03-17T04:03:00.194Z,0.00
2023-03-17T04:03:58.899Z,0.00
2023-03-17T04:05:00.329Z,0.00
2023-03-17T04:05:58.899Z,0.00
2023-03-17T04:06:59.193Z,0.00
2023-03-17T04:07:59.594Z,0.00
2023-03-17T04:08:59.349Z,0.00
2023-03-17T04:10:00.581Z,0.00
2023-03-17T04:11:00.360Z,0.00
2023-03-17T04:11:59.677Z,0.00
2023-03-17T04:13:00.677Z,0.00
2023-03-17T04:14:00.000Z,0.00
2023-03-17T04:15:00.087Z,0.00
2023-03-17T04:16:01.719Z,0.00
2023-03-17T04:17:00.705Z,0.00
2023-03-17T04:18:00.698Z,0.00
2023-03-17T04:19:00.745Z,0.00
2023-03-17T04:20:00.779Z,0.00
2023-03-17T04:21:01.139Z,0.00
2023-03-17T04:22:01.845Z,0.00
2023-03-17T04:23:01.959Z,0.00
2023-03-17T04:24:01.592Z,0.00
2023-03-17T04:25:01.642Z,0.00
2023-03-17T04:26:01.390Z,0.00
2023-03-17T04:27:01.902Z,0.00
2023-03-17T04:28:01.836Z,0.00
2023-03-17T04:29:03.046Z,0.00
2023-03-17T04:30:24.263Z,0.00
2023-03-17T04:31:03.245Z,0.00
2023-03-17T04:32:02.330Z,0.00
2023-03-17T04:33:02.975Z,0.00
2023-03-17T04:34:03.395Z,0.00
2023-03-17T04:35:03.574Z,0.00
2023-03-17T04:36:02.954Z,0.00
2023-03-17T04:37:03.828Z,0.00
2023-03-17T04:38:04.204Z,0.00
2023-03-17T04:39:04.383Z,0.00
2023-03-17T04:40:03.803Z,0.00
2023-03-17T04:41:03.686Z,0.00
2023-03-17T04:42:04.722Z,0.00
2023-03-17T04:43:04.612Z,0.00
2023-03-17T04:44:03.901Z,0.00
2023-03-17T04:45:05.614Z,0.00
2023-03-17T04:46:04.623Z,0.00
2023-03-17T04:47:04.746Z,0.00
2023-03-17T04:48:04.307Z,0.00
2023-03-17T04:49:04.403Z,0.00
2023-03-17T04:50:04.514Z,0.00
2023-03-17T04:51:04.705Z,0.00
2023-03-17T04:52:04.832Z,0.00
2023-03-17T04:53:04.920Z,0.00
2023-03-17T04:54:05.087Z,0.00
2023-03-17T04:55:05.327Z,0.00
2023-03-17T04:56:05.350Z,0.00
2023-03-17T04:57:05.552Z,0.00
2023-03-17T04:58:05.634Z,0.00
2023-03-17T04:59:05.781Z,0.00
2023-03-17T05:00:05.964Z,0.00
2023-03-17T05:01:06.118Z,0.00
2023-03-17T05:02:06.342Z,0.00
2023-03-17T05:03:16.749Z,0.00
2023-03-17T05:04:07.548Z,0.00
2023-03-17T05:05:06.727Z,0.00
2023-03-17T05:06:06.848Z,0.00
2023-03-17T05:07:06.958Z,0.00
2023-03-17T05:08:07.067Z,0.00
2023-03-17T05:09:07.218Z,0.00
2023-03-17T05:10:07.278Z,0.00
2023-03-17T05:11:07.455Z,0.00
2023-03-17T05:12:07.571Z,0.00
2023-03-17T05:13:07.691Z,0.00
2023-03-17T05:14:07.780Z,0.00
2023-03-17T05:15:07.934Z,0.00
2023-03-17T05:16:08.103Z,0.00
2023-03-17T05:17:08.176Z,0.00
2023-03-17T05:18:08.380Z,0.00
2023-03-17T05:19:08.509Z,0.00
2023-03-17T05:20:08.586Z,1.00
2023-03-17T05:21:08.769Z,1.00
2023-03-17T05:22:08.832Z,1.00
2023-03-17T05:23:08.967Z,2.00
2023-03-17T05:24:09.158Z,0.00
2023-03-17T05:25:09.252Z,2.00
2023-03-17T05:26:09.335Z,2.00
2023-03-17T05:27:09.407Z,3.00
2023-03-17T05:28:09.599Z,3.00
2023-03-17T05:29:09.784Z,3.00
2023-03-17T05:30:09.883Z,3.00
2023-03-17T05:31:11.043Z,5.00
2023-03-17T05:32:10.092Z,6.00
2023-03-17T05:33:10.163Z,7.00
2023-03-17T05:34:10.376Z,7.00
2023-03-17T05:35:10.477Z,7.00
2023-03-17T05:36:10.643Z,7.00
2023-03-17T05:37:10.715Z,8.00
2023-03-17T05:38:11.791Z,10.00
2023-03-17T05:39:14.063Z,10.00
2023-03-17T05:40:11.122Z,11.00
2023-03-17T05:41:11.228Z,13.00
2023-03-17T05:42:11.383Z,15.00
2023-03-17T05:43:11.562Z,14.00
2023-03-17T05:44:11.710Z,16.00
2023-03-17T05:45:11.873Z,18.00
2023-03-17T05:46:12.061Z,20.00
2023-03-17T05:48:28.779Z,25.00
2023-03-17T05:49:30.092Z,27.00
2023-03-17T05:50:28.518Z,30.00
2023-03-17T05:51:28.641Z,31.00
2023-03-17T05:52:30.011Z,32.00
2023-03-17T05:53:29.058Z,34.00
2023-03-17T05:54:29.997Z,37.00
2023-03-17T05:55:30.186Z,38.00
2023-03-17T05:56:29.312Z,40.00
2023-03-17T05:57:30.702Z,44.00
2023-03-17T05:58:30.519Z,45.00
2023-03-17T05:59:29.751Z,49.00
2023-03-17T06:00:30.536Z,51.00
2023-03-17T06:01:30.342Z,52.00
2023-03-17T06:02:30.413Z,56.00
2023-03-17T06:03:30.470Z,59.00
2023-03-17T06:04:31.407Z,61.00
2023-03-17T06:05:30.508Z,64.00
2023-03-17T06:06:30.551Z,66.00
2023-03-17T06:07:41.350Z,68.00
2023-03-17T06:08:31.994Z,70.00
2023-03-17T06:09:31.337Z,71.00
2023-03-17T06:10:31.647Z,73.00
2023-03-17T06:11:31.361Z,73.00
2023-03-17T06:12:31.529Z,74.00
2023-03-17T06:13:31.746Z,74.00
2023-03-17T06:14:32.788Z,75.00
2023-03-17T06:15:33.356Z,75.00
2023-03-17T06:16:33.427Z,77.00
2023-03-17T06:17:33.013Z,78.00
2023-03-17T06:18:32.512Z,78.00
2023-03-17T06:19:32.560Z,81.00
2023-03-17T06:20:32.549Z,82.00
2023-03-17T06:21:32.695Z,83.00
2023-03-17T06:22:34.060Z,88.00
2023-03-17T06:23:32.976Z,89.00
2023-03-17T06:24:34.189Z,103.00
2023-03-17T06:25:33.638Z,137.00
2023-03-17T06:26:33.721Z,162.00
2023-03-17T06:27:33.840Z,175.00
2023-03-17T06:28:33.563Z,178.00
2023-03-17T06:29:33.666Z,166.00
2023-03-17T06:30:33.789Z,154.00
2023-03-17T06:31:33.972Z,156.00
2023-03-17T06:32:34.084Z,175.00
2023-03-17T06:33:34.210Z,184.00
2023-03-17T06:34:34.442Z,186.00
2023-03-17T06:35:34.953Z,162.00
2023-03-17T06:36:36.359Z,193.00
2023-03-17T06:37:34.791Z,199.00
2023-03-17T06:38:34.996Z,215.00
2023-03-17T06:39:35.106Z,246.00
2023-03-17T06:40:35.280Z,218.00
2023-03-17T06:41:35.365Z,223.00
2023-03-17T06:42:35.490Z,246.00
2023-03-17T06:43:35.574Z,248.00
2023-03-17T06:44:35.735Z,226.00
2023-03-17T06:45:35.890Z,250.00
2023-03-17T06:46:36.068Z,263.00
2023-03-17T06:47:36.146Z,277.00
2023-03-17T06:48:36.260Z,249.00
2023-03-17T06:49:36.436Z,263.00
2023-03-17T06:50:36.595Z,275.00
2023-03-17T06:51:36.696Z,309.00
2023-03-17T06:52:36.912Z,254.00
2023-03-17T06:53:37.140Z,322.00
2023-03-17T06:54:37.129Z,328.00
2023-03-17T06:55:37.252Z,325.00
2023-03-17T06:56:38.375Z,317.00
2023-03-17T06:57:38.082Z,310.00
2023-03-17T06:58:37.681Z,370.00
2023-03-17T06:59:37.823Z,266.00
2023-03-17T07:00:38.074Z,532.00
2023-03-17T07:01:38.200Z,371.00
2023-03-17T07:02:38.294Z,349.00
2023-03-17T07:03:38.622Z,347.00
2023-03-17T07:04:38.721Z,355.00
2023-03-17T07:05:38.852Z,446.00
2023-03-17T07:06:39.007Z,74.00
2023-03-17T07:07:39.087Z,299.00
2023-03-17T07:08:39.123Z,362.00
2023-03-17T07:09:40.234Z,343.00
2023-03-17T07:10:39.411Z,240.00
2023-03-17T07:11:39.481Z,482.00
2023-03-17T07:12:39.714Z,263.00
2023-03-17T07:13:39.709Z,346.00
2023-03-17T07:14:39.919Z,418.00
2023-03-17T07:15:39.898Z,382.00
2023-03-17T07:16:40.091Z,411.00
2023-03-17T07:17:40.279Z,320.00
2023-03-17T07:18:40.249Z,308.00
2023-03-17T07:19:40.392Z,374.00
2023-03-17T07:20:40.570Z,382.00
2023-03-17T07:21:40.634Z,397.00
2023-03-17T07:22:41.204Z,401.00
2023-03-17T07:23:40.940Z,432.00
2023-03-17T07:24:41.169Z,553.00
2023-03-17T07:25:41.220Z,377.00
2023-03-17T07:26:41.392Z,441.00
2023-03-17T07:27:41.538Z,428.00
2023-03-17T07:28:41.669Z,397.00
2023-03-17T07:29:41.783Z,449.00
2023-03-17T07:30:41.945Z,382.00
2023-03-17T07:31:42.069Z,369.00
2023-03-17T07:32:42.407Z,377.00
2023-03-17T07:33:42.303Z,417.00
2023-03-17T07:34:42.446Z,358.00
2023-03-17T07:35:42.641Z,536.00
2023-03-17T07:36:42.722Z,375.00
2023-03-17T07:37:42.972Z,359.00
2023-03-17T07:38:43.019Z,296.00
2023-03-17T07:39:43.164Z,419.00
2023-03-17T07:41:59.436Z,439.00
2023-03-17T07:43:15.076Z,503.00
2023-03-17T07:43:59.595Z,378.00
2023-03-17T07:44:59.682Z,450.00
2023-03-17T07:45:59.848Z,474.00
2023-03-17T07:46:59.973Z,469.00
2023-03-17T07:48:00.088Z,375.00
2023-03-17T07:49:00.091Z,350.00
2023-03-17T07:50:21.481Z,333.00
2023-03-17T07:51:21.637Z,294.00
2023-03-17T07:52:00.802Z,455.00
2023-03-17T07:53:00.733Z,384.00
2023-03-17T07:54:00.895Z,390.00
2023-03-17T07:55:01.215Z,338.00
2023-03-17T07:56:05.163Z,426.00
2023-03-17T07:57:01.188Z,451.00
2023-03-17T07:58:01.630Z,537.00
2023-03-17T07:59:01.631Z,462.00
2023-03-17T08:00:01.672Z,396.00
2023-03-17T08:01:01.732Z,470.00
2023-03-17T08:02:02.005Z,351.00
2023-03-17T08:03:09.851Z,601.00
2023-03-17T08:04:03.316Z,573.00
2023-03-17T08:05:04.028Z,570.00
2023-03-17T08:06:02.689Z,648.00
2023-03-17T08:07:02.622Z,468.00
2023-03-17T08:08:02.676Z,584.00
2023-03-17T08:09:02.794Z,379.00
2023-03-17T08:10:02.955Z,466.00
2023-03-17T08:11:03.879Z,605.00
2023-03-17T08:12:04.722Z,594.00
2023-03-17T08:13:03.787Z,596.00
2023-03-17T08:14:03.552Z,520.00
2023-03-17T08:15:04.697Z,598.00
2023-03-17T08:16:03.940Z,586.00
2023-03-17T08:17:04.068Z,397.00
2023-03-17T08:18:05.021Z,551.00
2023-03-17T08:19:04.198Z,543.00
2023-03-17T08:20:04.408Z,442.00
2023-03-17T08:21:04.481Z,519.00
2023-03-17T08:22:04.643Z,520.00
2023-03-17T08:23:04.732Z,572.00
2023-03-17T08:24:05.074Z,567.00
2023-03-17T08:25:05.071Z,570.00
2023-03-17T08:26:06.727Z,511.00
2023-03-17T08:27:05.825Z,450.00
2023-03-17T08:28:05.604Z,526.00
2023-03-17T08:29:05.705Z,493.00
2023-03-17T08:30:05.830Z,509.00
2023-03-17T08:31:06.011Z,562.00
2023-03-17T08:32:06.363Z,512.00
2023-03-17T08:33:06.900Z,484.00
2023-03-17T08:34:07.264Z,530.00
2023-03-17T08:35:06.515Z,463.00
2023-03-17T08:36:07.480Z,531.00
2023-03-17T08:37:07.179Z,505.00
2023-03-17T08:38:06.691Z,538.00
2023-03-17T08:39:06.919Z,582.00
2023-03-17T08:40:07.208Z,560.00
2023-03-17T08:41:07.212Z,541.00
2023-03-17T08:42:07.236Z,584.00
2023-03-17T08:43:07.364Z,594.00
2023-03-17T08:44:07.437Z,588.00
2023-03-17T08:45:07.661Z,600.00
2023-03-17T08:46:07.818Z,582.00
2023-03-17T08:47:07.943Z,612.00
2023-03-17T08:48:08.077Z,618.00
2023-03-17T08:49:08.444Z,634.00
2023-03-17T08:50:08.413Z,588.00
2023-03-17T08:51:08.428Z,538.00
2023-03-17T08:52:09.597Z,618.00
2023-03-17T08:53:08.674Z,609.00
2023-03-17T08:54:08.878Z,520.00
2023-03-17T08:55:08.968Z,599.00
2023-03-17T08:56:09.182Z,560.00
2023-03-17T08:57:09.651Z,537.00
2023-03-17T08:58:09.517Z,532.00
2023-03-17T08:59:09.899Z,553.00
2023-03-17T09:00:09.812Z,549.00
2023-03-17T09:01:09.856Z,530.00
2023-03-17T09:02:11.465Z,532.00
2023-03-17T09:03:10.130Z,541.00
2023-03-17T09:04:10.442Z,573.00
2023-03-17T09:05:10.417Z,597.00
2023-03-17T09:06:10.527Z,600.00
2023-03-17T09:07:10.969Z,568.00
2023-03-17T09:08:11.144Z,569.00
2023-03-17T09:09:10.958Z,561.00
2023-03-17T09:10:11.083Z,575.00
2023-03-17T09:11:11.145Z,587.00
2023-03-17T09:12:11.415Z,498.00
2023-03-17T09:13:11.616Z,558.00
2023-03-17T09:14:11.616Z,527.00
2023-03-17T09:15:11.683Z,523.00
2023-03-17T09:16:11.897Z,596.00
2023-03-17T09:17:11.980Z,626.00
2023-03-17T09:18:12.485Z,609.00
2023-03-17T09:19:12.386Z,662.00
2023-03-17T09:20:12.471Z,565.00
2023-03-17T09:21:12.571Z,611.00
2023-03-17T09:22:12.684Z,504.00
2023-03-17T09:23:13.984Z,699.00
2023-03-17T09:24:13.041Z,637.00
2023-03-17T09:25:13.462Z,639.00
2023-03-17T09:28:30.473Z,559.00
2023-03-17T09:29:31.364Z,538.00
2023-03-17T09:30:30.891Z,561.00
2023-03-17T09:31:30.994Z,550.00
2023-03-17T09:32:30.879Z,524.00
2023-03-17T09:33:31.059Z,523.00
2023-03-17T09:34:31.146Z,548.00
2023-03-17T09:35:31.333Z,551.00
2023-03-17T09:36:31.646Z,559.00
2023-03-17T09:37:31.572Z,584.00
2023-03-17T09:38:31.835Z,606.00
2023-03-17T09:39:32.059Z,616.00
2023-03-17T09:40:32.299Z,642.00
2023-03-17T09:41:32.635Z,644.00
2023-03-17T09:42:32.225Z,674.00
2023-03-17T09:43:32.538Z,647.00
2023-03-17T09:44:32.588Z,670.00
2023-03-17T09:45:32.749Z,704.00
2023-03-17T09:46:32.883Z,696.00
2023-03-17T09:47:33.021Z,718.00
2023-03-17T09:48:33.196Z,770.00
2023-03-17T09:49:33.385Z,793.00
2023-03-17T09:50:33.528Z,758.00
2023-03-17T09:51:33.563Z,743.00
2023-03-17T09:52:33.830Z,745.00
2023-03-17T09:53:33.840Z,738.00
2023-03-17T09:54:34.380Z,780.00
2023-03-17T09:55:34.546Z,754.00
2023-03-17T09:56:34.300Z,781.00
2023-03-17T09:57:34.425Z,821.00
2023-03-17T09:58:34.543Z,722.00
2023-03-17T09:59:36.141Z,662.00
2023-03-17T10:00:34.897Z,579.00
2023-03-17T10:01:56.080Z,642.00
2023-03-17T10:13:19.024Z,635.00
2023-03-17T10:14:18.366Z,585.00
2023-03-17T10:15:19.899Z,719.00
2023-03-17T10:16:18.941Z,667.00
2023-03-17T10:17:23.393Z,752.00
2023-03-17T10:18:19.046Z,679.00
2023-03-17T10:19:19.164Z,585.00
2023-03-17T10:20:19.193Z,697.00
2023-03-17T10:21:19.573Z,720.00
2023-03-17T10:22:19.352Z,712.00
2023-03-17T10:23:19.666Z,729.00
2023-03-17T10:24:19.975Z,742.00
2023-03-17T10:25:19.833Z,738.00
2023-03-17T10:26:21.135Z,726.00
2023-03-17T10:27:20.027Z,678.00
2023-03-17T10:28:20.324Z,726.00
2023-03-17T10:29:20.394Z,724.00
2023-03-17T10:30:20.541Z,709.00
2023-03-17T10:31:21.396Z,717.00
2023-03-17T10:32:20.646Z,711.00
2023-03-17T10:33:20.788Z,728.00
2023-03-17T10:34:20.968Z,750.00
2023-03-17T10:35:21.113Z,804.00
2023-03-17T10:36:21.282Z,830.00
2023-03-17T10:37:21.433Z,817.00
2023-03-17T10:38:21.810Z,794.00
2023-03-17T10:39:22.527Z,764.00
2023-03-17T10:40:21.924Z,779.00
2023-03-17T10:41:21.952Z,821.00
2023-03-17T10:42:22.053Z,887.00
2023-03-17T10:43:22.072Z,874.00
2023-03-17T10:44:22.295Z,897.00
2023-03-17T10:45:22.386Z,887.00
2023-03-17T10:46:22.662Z,879.00
2023-03-17T10:47:24.186Z,880.00
2023-03-17T10:48:22.807Z,900.00
2023-03-17T10:49:23.187Z,926.00
2023-03-17T10:50:24.601Z,978.00
2023-03-17T10:51:23.232Z,993.00
2023-03-17T10:52:23.989Z,980.00
2023-03-17T10:53:23.611Z,916.00
2023-03-17T10:54:23.739Z,914.00
2023-03-17T10:55:23.992Z,913.00
2023-03-17T10:56:24.100Z,902.00
2023-03-17T10:57:24.159Z,812.00
2023-03-17T10:58:24.582Z,851.00
2023-03-17T10:59:24.592Z,805.00
2023-03-17T11:00:24.528Z,867.00
2023-03-17T11:01:24.827Z,825.00
2023-03-17T11:02:25.122Z,857.00
2023-03-17T11:03:29.517Z,868.00
2023-03-17T11:04:25.185Z,890.00
2023-03-17T11:05:25.198Z,890.00
2023-03-17T11:06:26.133Z,905.00
2023-03-17T11:07:25.484Z,901.00
2023-03-17T11:08:26.128Z,940.00
2023-03-17T11:09:25.914Z,948.00
2023-03-17T11:10:25.958Z,935.00
2023-03-17T11:11:26.113Z,867.00
2023-03-17T11:12:26.653Z,833.00
2023-03-17T11:13:27.397Z,878.00
2023-03-17T11:14:26.780Z,868.00
2023-03-17T11:15:27.555Z,871.00
2023-03-17T11:16:26.899Z,846.00
2023-03-17T11:17:27.221Z,952.00
2023-03-17T11:18:27.341Z,916.00
2023-03-17T11:19:27.486Z,898.00
2023-03-17T11:20:27.579Z,848.00
2023-03-17T11:21:27.516Z,779.00
2023-03-17T11:22:27.659Z,758.00
2023-03-17T11:23:27.775Z,827.00
2023-03-17T11:24:28.069Z,891.00
2023-03-17T11:25:28.395Z,885.00
2023-03-17T11:26:28.251Z,853.00
2023-03-17T11:27:28.691Z,837.00
2023-03-17T11:28:28.591Z,782.00
2023-03-17T11:29:28.646Z,842.00
2023-03-17T11:30:29.257Z,830.00
2023-03-17T11:31:28.967Z,826.00
2023-03-17T11:33:44.333Z,892.00
2023-03-17T11:34:44.304Z,897.00
2023-03-17T11:35:44.650Z,921.00
2023-03-17T11:36:44.585Z,889.00
2023-03-17T11:37:44.851Z,929.00
2023-03-17T11:38:46.338Z,956.00
2023-03-17T11:39:46.468Z,963.00
2023-03-17T11:40:45.148Z,989.00
2023-03-17T11:41:45.465Z,995.00
2023-03-17T11:42:45.481Z,1010.00
2023-03-17T11:43:45.607Z,1059.00
2023-03-17T11:44:45.674Z,1082.00
2023-03-17T11:45:45.810Z,1133.00
2023-03-17T11:46:45.928Z,1156.00
2023-03-17T11:47:47.138Z,1195.00
2023-03-17T11:48:46.208Z,1110.00
2023-03-17T11:49:47.270Z,1084.00
2023-03-17T11:50:46.522Z,1061.00
2023-03-17T11:51:46.606Z,1065.00
2023-03-17T11:52:47.732Z,1060.00
2023-03-17T11:53:46.878Z,1047.00
2023-03-17T11:54:47.042Z,1055.00
2023-03-17T11:55:47.278Z,1057.00
2023-03-17T11:56:47.385Z,1047.00
2023-03-17T11:57:47.600Z,1080.00
2023-03-17T11:58:47.568Z,1174.00
2023-03-17T11:59:48.654Z,1141.00
2023-03-17T12:00:47.848Z,1225.00
2023-03-17T12:01:48.026Z,1234.00
2023-03-17T12:02:48.136Z,1256.00
2023-03-17T12:03:49.369Z,1269.00
2023-03-17T12:04:49.469Z,1264.00
2023-03-17T12:05:48.571Z,1290.00
2023-03-17T12:06:48.712Z,1341.00
2023-03-17T12:07:48.895Z,1352.00
2023-03-17T12:08:49.008Z,1349.00
2023-03-17T12:09:50.762Z,1306.00
2023-03-17T12:10:49.318Z,1297.00
2023-03-17T12:11:49.522Z,1346.00
2023-03-17T12:12:49.784Z,1284.00
2023-03-17T12:13:49.790Z,1365.00
2023-03-17T12:14:49.921Z,1411.00
2023-03-17T12:15:50.174Z,1334.00
2023-03-17T12:16:50.174Z,1355.00
2023-03-17T12:17:50.314Z,1323.00
2023-03-17T12:18:50.402Z,1411.00
2023-03-17T12:19:50.540Z,1349.00
2023-03-17T12:20:52.170Z,1456.00
2023-03-17T12:21:52.301Z,1452.00
2023-03-17T12:22:51.000Z,1454.00
2023-03-17T12:23:51.398Z,1477.00
2023-03-17T12:24:51.259Z,1496.00
2023-03-17T12:25:51.727Z,1487.00
2023-03-17T12:26:51.849Z,1445.00
2023-03-17T12:27:51.873Z,1414.00
2023-03-17T12:28:51.859Z,1424.00
2023-03-17T12:29:52.585Z,1417.00
2023-03-17T12:30:52.395Z,1482.00
2023-03-17T12:31:52.390Z,1460.00
2023-03-17T12:32:52.864Z,1423.00
2023-03-17T12:33:53.111Z,1471.00
2023-03-17T12:34:55.480Z,1468.00
2023-03-17T12:35:53.242Z,1464.00
2023-03-17T12:36:53.212Z,1478.00
2023-03-17T12:37:53.232Z,1507.00
2023-03-17T12:38:53.359Z,1456.00
2023-03-17T12:39:53.943Z,1493.00
2023-03-17T12:40:53.810Z,1495.00
2023-03-17T12:41:53.925Z,1516.00
2023-03-17T12:42:54.845Z,1567.00
2023-03-17T12:43:54.317Z,1593.00
2023-03-17T12:44:54.339Z,1566.00
2023-03-17T12:45:54.458Z,1663.00
2023-03-17T12:46:54.504Z,1729.00
2023-03-17T12:47:54.915Z,1716.00
2023-03-17T12:48:54.839Z,1680.00
2023-03-17T12:49:54.933Z,1618.00
2023-03-17T12:50:55.963Z,1580.00
2023-03-17T12:51:56.098Z,1520.00
2023-03-17T12:52:56.946Z,1480.00
2023-03-17T12:53:55.430Z,1476.00
2023-03-17T12:54:55.898Z,1467.00
2023-03-17T12:55:56.567Z,1463.00
2023-03-17T12:56:56.686Z,1463.00
2023-03-17T12:57:56.142Z,1533.00
2023-03-17T12:58:56.127Z,1522.00
2023-03-17T12:59:56.328Z,1535.00
2023-03-17T13:00:57.213Z,1624.00
2023-03-17T13:01:56.496Z,1745.00
2023-03-17T13:02:56.552Z,1845.00
2023-03-17T13:03:57.603Z,1795.00
2023-03-17T13:04:57.107Z,1749.00
2023-03-17T13:05:58.092Z,1718.00
2023-03-17T13:08:13.383Z,1662.00
2023-03-17T13:09:13.196Z,1665.00
2023-03-17T13:10:14.282Z,1625.00
2023-03-17T13:11:13.538Z,1544.00
2023-03-17T13:12:13.916Z,1531.00
2023-03-17T13:13:14.049Z,1601.00
2023-03-17T13:14:14.845Z,1596.00
2023-03-17T13:15:14.127Z,1545.00
2023-03-17T13:16:14.738Z,1531.00
2023-03-17T13:17:14.501Z,1545.00
2023-03-17T13:18:14.611Z,1602.00
2023-03-17T13:19:14.599Z,1625.00
2023-03-17T13:20:14.867Z,1614.00
2023-03-17T13:21:14.861Z,1641.00
2023-03-17T13:22:14.905Z,1652.00
2023-03-17T13:23:15.056Z,1678.00
2023-03-17T13:24:15.336Z,1698.00
2023-03-17T13:25:15.349Z,1717.00
2023-03-17T13:26:15.613Z,1696.00
2023-03-17T13:27:15.556Z,1683.00
2023-03-17T13:28:15.754Z,1672.00
2023-03-17T13:29:15.834Z,1667.00
2023-03-17T13:30:15.933Z,1644.00
2023-03-17T13:31:16.335Z,1602.00
2023-03-17T13:32:17.125Z,1567.00
2023-03-17T13:33:17.552Z,1553.00
2023-03-17T13:34:16.458Z,1539.00
2023-03-17T13:35:16.628Z,1549.00
2023-03-17T13:36:17.160Z,1549.00
2023-03-17T13:37:17.175Z,1549.00
2023-03-17T13:38:17.194Z,1584.00
2023-03-17T13:39:20.518Z,1555.00
2023-03-17T13:40:17.436Z,1495.00
2023-03-17T13:41:17.602Z,1411.00
2023-03-17T13:42:19.068Z,1297.00
2023-03-17T13:43:17.914Z,1176.00
2023-03-17T13:44:17.924Z,1088.00
2023-03-17T13:45:18.255Z,1084.00
2023-03-17T13:46:19.015Z,1091.00
2023-03-17T13:47:19.145Z,1154.00
2023-03-17T13:48:18.655Z,1168.00
2023-03-17T13:49:18.573Z,1191.00
2023-03-17T13:50:18.691Z,1229.00
2023-03-17T13:51:18.923Z,1315.00
2023-03-17T13:52:18.807Z,1396.00
2023-03-17T13:53:18.953Z,1377.00
2023-03-17T13:54:19.126Z,1377.00
2023-03-17T13:55:19.491Z,1392.00
2023-03-17T13:56:19.829Z,1387.00
2023-03-17T13:57:19.950Z,1376.00
2023-03-17T13:58:19.949Z,1383.00
2023-03-17T13:59:19.779Z,1383.00
2023-03-17T14:00:20.004Z,1356.00
2023-03-17T14:01:20.192Z,1346.00
2023-03-17T14:02:20.299Z,1311.00
2023-03-17T14:03:21.234Z,1292.00
2023-03-17T14:04:21.481Z,1302.00
2023-03-17T14:05:20.753Z,1322.00
2023-03-17T14:06:20.830Z,1315.00
2023-03-17T14:07:21.207Z,1258.00
2023-03-17T14:08:21.388Z,1110.00
2023-03-17T14:09:21.265Z,826.00
2023-03-17T14:10:21.483Z,570.00
2023-03-17T14:11:21.509Z,447.00
2023-03-17T14:12:21.645Z,392.00
2023-03-17T14:13:21.905Z,434.00
2023-03-17T14:14:32.131Z,633.00
2023-03-17T14:15:24.482Z,882.00
2023-03-17T14:16:22.587Z,822.00
2023-03-17T14:17:22.598Z,699.00
2023-03-17T14:18:23.333Z,766.00
2023-03-17T14:19:23.605Z,867.00
2023-03-17T14:20:22.865Z,874.00
2023-03-17T14:21:22.881Z,862.00
2023-03-17T14:22:23.499Z,1046.00
2023-03-17T14:23:23.214Z,1075.00
2023-03-17T14:24:23.525Z,1168.00
2023-03-17T14:25:23.575Z,1264.00
2023-03-17T14:26:23.514Z,1351.00
2023-03-17T14:27:23.852Z,1326.00
2023-03-17T14:28:23.944Z,1319.00
2023-03-17T14:29:24.269Z,1238.00
2023-03-17T14:32:43.636Z,1001.00
2023-03-17T14:33:40.588Z,1049.00
2023-03-17T14:34:40.602Z,1065.00
2023-03-17T14:35:41.116Z,1053.00
2023-03-17T14:36:41.130Z,1075.00
2023-03-17T14:37:41.134Z,1067.00
2023-03-17T14:38:41.129Z,1036.00
2023-03-17T14:39:41.249Z,1021.00
2023-03-17T14:40:41.244Z,990.00
2023-03-17T14:41:41.667Z,958.00
2023-03-17T14:42:45.540Z,929.00
2023-03-17T14:43:41.773Z,900.00
2023-03-17T14:44:41.801Z,860.00
2023-03-17T14:45:43.044Z,851.00
2023-03-17T14:46:42.426Z,839.00
2023-03-17T14:47:42.254Z,831.00
2023-03-17T14:48:43.490Z,814.00
2023-03-17T14:49:42.527Z,828.00
2023-03-17T14:50:42.941Z,858.00
2023-03-17T14:51:43.709Z,901.00
2023-03-17T14:52:44.160Z,945.00
2023-03-17T14:53:43.469Z,961.00
2023-03-17T14:54:43.685Z,943.00
2023-03-17T14:55:43.781Z,922.00
2023-03-17T14:56:43.768Z,919.00
2023-03-17T14:57:43.873Z,940.00
2023-03-17T14:58:43.800Z,941.00
2023-03-17T14:59:45.408Z,933.00
2023-03-17T15:00:44.385Z,924.00
2023-03-17T15:01:45.152Z,924.00
2023-03-17T15:02:44.616Z,920.00
2023-03-17T15:03:44.761Z,915.00
2023-03-17T15:04:44.989Z,917.00
2023-03-17T15:05:45.009Z,905.00
2023-03-17T15:06:45.312Z,851.00
2023-03-17T15:07:45.309Z,826.00
2023-03-17T15:08:45.121Z,809.00
2023-03-17T15:09:45.271Z,807.00
2023-03-17T15:10:45.553Z,779.00
2023-03-17T15:11:46.424Z,773.00
2023-03-17T15:12:45.741Z,768.00
2023-03-17T15:13:45.953Z,755.00
2023-03-17T15:14:46.110Z,737.00
2023-03-17T15:15:46.468Z,726.00
2023-03-17T15:16:47.202Z,718.00
2023-03-17T15:17:46.470Z,721.00
2023-03-17T15:18:46.688Z,703.00
2023-03-17T15:19:46.708Z,690.00
2023-03-17T15:20:48.105Z,685.00
2023-03-17T15:21:47.129Z,680.00
2023-03-17T15:22:47.231Z,682.00
2023-03-17T15:23:47.448Z,677.00
2023-03-17T15:24:47.798Z,664.00
2023-03-17T15:25:48.433Z,635.00
2023-03-17T15:26:47.681Z,605.00
2023-03-17T15:27:48.775Z,593.00
2023-03-17T15:28:48.840Z,585.00
2023-03-17T15:29:48.528Z,585.00
2023-03-17T15:30:49.921Z,561.00
2023-03-17T15:31:48.873Z,557.00
2023-03-17T15:32:48.592Z,523.00
2023-03-17T15:33:48.923Z,504.00
2023-03-17T15:34:48.857Z,507.00
2023-03-17T15:35:50.653Z,514.00
2023-03-17T15:36:49.057Z,502.00
2023-03-17T15:37:49.236Z,502.00
2023-03-17T15:38:49.559Z,504.00
2023-03-17T15:39:50.387Z,488.00
2023-03-17T15:40:49.835Z,477.00
2023-03-17T15:41:50.033Z,476.00
2023-03-17T15:42:50.059Z,467.00
2023-03-17T15:43:50.201Z,463.00
2023-03-17T15:44:50.547Z,451.00
2023-03-17T15:45:51.585Z,404.00
2023-03-17T15:46:50.565Z,337.00
2023-03-17T15:47:51.549Z,279.00
2023-03-17T15:48:50.785Z,256.00
2023-03-17T15:49:51.305Z,269.00
2023-03-17T15:53:10.524Z,352.00
2023-03-17T15:54:07.390Z,360.00
2023-03-17T15:55:08.476Z,360.00
2023-03-17T15:56:08.522Z,350.00
2023-03-17T15:57:08.640Z,339.00
2023-03-17T15:58:08.748Z,334.00
2023-03-17T15:59:08.468Z,352.00
2023-03-17T16:00:09.031Z,367.00
2023-03-17T16:01:08.583Z,364.00
2023-03-17T16:12:33.381Z,144.00
2023-03-17T16:13:29.775Z,131.00
2023-03-17T16:14:29.978Z,100.00
2023-03-17T16:15:34.112Z,97.00
2023-03-17T16:16:30.299Z,101.00
2023-03-17T16:17:30.274Z,112.00
2023-03-17T16:18:31.376Z,130.00
2023-03-17T16:19:31.497Z,140.00
2023-03-17T16:20:32.415Z,130.00
2023-03-17T16:21:31.203Z,121.00
2023-03-17T16:22:31.129Z,130.00
2023-03-17T16:23:32.151Z,152.00
2023-03-17T16:24:31.347Z,169.00
2023-03-17T16:25:33.208Z,170.00
2023-03-17T16:26:32.424Z,180.00
2023-03-17T16:27:32.510Z,186.00
2023-03-17T16:28:32.616Z,186.00
2023-03-17T16:29:32.716Z,183.00
2023-03-17T16:30:33.354Z,184.00
2023-03-17T16:31:33.395Z,187.00
2023-03-17T16:32:32.702Z,180.00
2023-03-17T16:33:33.486Z,166.00
2023-03-17T16:34:33.507Z,136.00
2023-03-17T16:35:33.068Z,121.00
2023-03-17T16:36:34.621Z,118.00
2023-03-17T16:37:32.972Z,107.00
2023-03-17T16:38:33.011Z,101.00
2023-03-17T16:39:33.416Z,102.00
2023-03-17T16:40:34.212Z,101.00
2023-03-17T16:41:34.222Z,90.00
2023-03-17T16:42:33.749Z,88.00
2023-03-17T16:43:34.641Z,94.00
2023-03-17T16:44:33.868Z,101.00
2023-03-17T16:45:35.206Z,103.00
2023-03-17T16:46:35.353Z,106.00
2023-03-17T16:47:35.944Z,99.00
2023-03-17T16:48:36.022Z,90.00
2023-03-17T16:49:36.033Z,86.00
2023-03-17T16:50:35.790Z,89.00
2023-03-17T16:51:35.804Z,89.00
2023-03-17T16:52:35.127Z,89.00
2023-03-17T16:53:36.189Z,77.00
2023-03-17T16:54:35.269Z,71.00
2023-03-17T16:55:36.244Z,61.00
2023-03-17T16:56:36.445Z,58.00
2023-03-17T16:57:35.574Z,53.00
2023-03-17T16:58:36.293Z,51.00
2023-03-17T16:59:37.343Z,52.00
2023-03-17T17:00:36.300Z,46.00
2023-03-17T17:01:36.440Z,42.00
2023-03-17T17:02:37.476Z,39.00
2023-03-17T17:03:36.538Z,37.00
2023-03-17T17:04:38.514Z,42.00